createdAt,value
2023-01-07T00:00:02.005Z,29.23
2023-01-07T00:00:46.430Z,26.25
2023-01-07T00:01:22.749Z,25.52
2023-01-07T00:01:57.309Z,29.15
2023-01-07T00:02:31.836Z,23.77
2023-01-07T00:03:07.516Z,27.30
2023-01-07T00:03:42.101Z,29.35
2023-01-07T00:04:17.945Z,26.40
2023-01-07T00:04:52.776Z,22.35
2023-01-07T00:05:27.587Z,32.53
2023-01-07T00:06:01.675Z,24.48
2023-01-07T00:06:38.644Z,32.60
2023-01-07T00:07:12.679Z,24.85
2023-01-07T00:07:47.188Z,28.17
2023-01-07T00:08:21.591Z,29.35
2023-01-07T00:08:59.691Z,33.92
2023-01-07T00:09:33.640Z,27.70
2023-01-07T00:10:11.501Z,32.30
2023-01-07T00:10:45.471Z,33.20
2023-01-07T00:11:20.740Z,24.92
2023-01-07T00:11:54.582Z,31.02
2023-01-07T00:12:27.190Z,32.78
2023-01-07T00:13:01.145Z,29.75
2023-01-07T00:13:35.601Z,34.90
2023-01-07T00:14:13.934Z,27.45
2023-01-07T00:14:50.065Z,28.23
2023-01-07T00:15:23.993Z,29.13
2023-01-07T00:16:00.178Z,28.58
2023-01-07T00:16:37.302Z,25.45
2023-01-07T00:17:11.031Z,26.08
2023-01-07T00:17:44.973Z,25.50
2023-01-07T00:18:19.377Z,33.28
2023-01-07T00:18:53.714Z,31.13
2023-01-07T00:19:29.727Z,25.73
2023-01-07T00:20:04.250Z,33.28
2023-01-07T00:20:40.450Z,31.20
2023-01-07T00:21:16.417Z,26.52
2023-01-07T00:21:51.864Z,28.13
2023-01-07T00:22:25.849Z,31.42
2023-01-07T00:23:00.056Z,27.92
2023-01-07T00:23:36.163Z,28.65
2023-01-07T00:24:12.191Z,26.17
2023-01-07T00:24:47.238Z,27.60
2023-01-07T00:25:21.102Z,35.55
2023-01-07T00:26:02.074Z,33.75
2023-01-07T00:26:38.621Z,30.17
2023-01-07T00:27:12.655Z,27.83
2023-01-07T00:27:48.420Z,34.63
2023-01-07T00:28:22.892Z,31.73
2023-01-07T00:28:57.058Z,28.27
2023-01-07T00:29:32.255Z,35.13
2023-01-07T00:30:10.117Z,29.38
2023-01-07T00:30:45.026Z,34.75
2023-01-07T00:31:20.390Z,31.60
2023-01-07T00:31:54.650Z,29.05
2023-01-07T00:32:51.550Z,30.42
2023-01-07T00:33:28.913Z,29.23
2023-01-07T00:34:09.509Z,24.85
2023-01-07T00:34:45.157Z,26.73
2023-01-07T00:35:22.791Z,31.42
2023-01-07T00:36:03.301Z,26.13
2023-01-07T00:36:43.169Z,31.52
2023-01-07T00:37:33.570Z,28.75
2023-01-07T00:38:07.934Z,31.33
2023-01-07T00:38:40.929Z,28.90
2023-01-07T00:39:16.500Z,32.83
2023-01-07T00:39:51.141Z,31.27
2023-01-07T00:40:25.555Z,36.65
2023-01-07T00:41:00.664Z,29.52
2023-01-07T00:41:36.211Z,27.88
2023-01-07T00:42:26.668Z,33.30
2023-01-07T00:43:05.816Z,33.13
2023-01-07T00:43:41.356Z,30.52
2023-01-07T00:44:15.649Z,28.92
2023-01-07T00:44:49.376Z,29.35
2023-01-07T00:45:25.701Z,29.25
2023-01-07T00:45:59.266Z,27.88
2023-01-07T00:46:34.791Z,31.17
2023-01-07T00:47:09.810Z,27.42
2023-01-07T00:47:44.295Z,32.03
2023-01-07T00:48:19.796Z,29.75
2023-01-07T00:48:53.720Z,28.35
2023-01-07T00:49:27.863Z,33.05
2023-01-07T00:50:02.363Z,32.38
2023-01-07T00:50:37.689Z,29.77
2023-01-07T00:51:12.697Z,36.50
2023-01-07T00:51:47.554Z,33.10
2023-01-07T00:52:22.680Z,34.80
2023-01-07T00:52:56.745Z,25.33
2023-01-07T00:53:32.531Z,28.52
2023-01-07T00:54:07.252Z,27.85
2023-01-07T00:54:42.072Z,31.67
2023-01-07T00:55:17.109Z,30.58
2023-01-07T00:55:51.105Z,30.52
2023-01-07T00:56:27.103Z,27.83
2023-01-07T00:57:01.111Z,30.45
2023-01-07T00:57:34.532Z,28.98
2023-01-07T00:58:09.352Z,32.53
2023-01-07T00:58:43.591Z,27.92
2023-01-07T00:59:18.533Z,26.70
2023-01-07T00:59:53.221Z,32.05
2023-01-07T01:00:27.407Z,34.53
2023-01-07T01:01:04.848Z,23.50
2023-01-07T01:01:39.162Z,31.92
2023-01-07T01:02:12.836Z,24.73
2023-01-07T01:02:48.012Z,30.05
2023-01-07T01:03:22.519Z,27.48
2023-01-07T01:03:57.569Z,29.52
2023-01-07T01:04:32.052Z,28.13
2023-01-07T01:05:07.581Z,30.42
2023-01-07T01:05:42.198Z,30.48
2023-01-07T01:06:17.804Z,30.10
2023-01-07T01:06:51.139Z,25.77
2023-01-07T01:07:25.542Z,29.75
2023-01-07T01:07:58.968Z,30.45
2023-01-07T01:08:33.231Z,27.90
2023-01-07T01:09:07.738Z,29.25
2023-01-07T01:09:43.565Z,25.52
2023-01-07T01:10:19.352Z,37.70
2023-01-07T01:10:55.255Z,27.45
2023-01-07T01:11:29.254Z,34.00
2023-01-07T01:12:04.262Z,24.52
2023-01-07T01:12:37.184Z,24.73
2023-01-07T01:13:14.027Z,29.75
2023-01-07T01:13:49.190Z,33.47
2023-01-07T01:14:24.097Z,24.40
2023-01-07T01:14:57.451Z,21.23
2023-01-07T01:15:32.446Z,27.20
2023-01-07T01:16:09.497Z,22.50
2023-01-07T01:16:44.686Z,29.38
2023-01-07T01:17:19.218Z,27.23
2023-01-07T01:17:52.839Z,28.88
2023-01-07T01:18:27.898Z,25.50
2023-01-07T01:19:02.865Z,25.80
2023-01-07T01:19:36.316Z,25.98
2023-01-07T01:20:12.933Z,29.00
2023-01-07T01:20:46.283Z,29.10
2023-01-07T01:21:22.432Z,23.95
2023-01-07T01:21:55.316Z,32.90
2023-01-07T01:22:28.594Z,27.15
2023-01-07T01:23:02.504Z,29.80
2023-01-07T01:23:36.552Z,28.92
2023-01-07T01:24:10.161Z,25.33
2023-01-07T01:24:46.718Z,30.70
2023-01-07T01:25:21.071Z,23.08
2023-01-07T01:26:04.497Z,24.77
2023-01-07T01:26:38.868Z,26.70
2023-01-07T01:27:12.153Z,26.48
2023-01-07T01:27:46.500Z,32.58
2023-01-07T01:28:20.969Z,29.65
2023-01-07T01:28:54.323Z,27.58
2023-01-07T01:29:30.405Z,28.17
2023-01-07T01:30:05.427Z,27.58
2023-01-07T01:30:41.911Z,25.13
2023-01-07T01:31:16.434Z,26.27
2023-01-07T01:31:55.161Z,29.60
2023-01-07T01:32:29.275Z,28.55
2023-01-07T01:33:03.139Z,25.30
2023-01-07T01:33:37.945Z,32.40
2023-01-07T01:34:11.375Z,27.90
2023-01-07T01:34:46.419Z,27.45
2023-01-07T01:35:21.606Z,23.25
2023-01-07T01:35:57.245Z,30.88
2023-01-07T01:36:30.730Z,31.38
2023-01-07T01:37:07.738Z,26.77
2023-01-07T01:37:42.025Z,25.33
2023-01-07T01:38:16.625Z,23.95
2023-01-07T01:38:50.674Z,22.75
2023-01-07T01:39:24.336Z,25.23
2023-01-07T01:39:58.954Z,26.85
2023-01-07T01:40:35.867Z,29.00
2023-01-07T01:41:13.809Z,29.45
2023-01-07T01:41:48.015Z,32.53
2023-01-07T01:42:24.610Z,28.05
2023-01-07T01:43:00.152Z,26.25
2023-01-07T01:43:39.758Z,27.30
2023-01-07T01:44:40.518Z,23.08
2023-01-07T01:45:19.736Z,23.85
2023-01-07T01:45:54.994Z,27.17
2023-01-07T01:46:34.711Z,30.77
2023-01-07T01:47:18.087Z,35.10
2023-01-07T01:47:57.254Z,24.83
2023-01-07T01:48:36.678Z,26.73
2023-01-07T01:49:25.950Z,28.55
2023-01-07T01:50:04.811Z,38.35
2023-01-07T01:51:19.148Z,28.35
2023-01-07T01:52:00.503Z,37.20
2023-01-07T01:52:40.005Z,26.92
2023-01-07T01:53:19.162Z,24.10
2023-01-07T01:53:54.211Z,32.47
2023-01-07T01:54:29.530Z,26.42
2023-01-07T01:55:11.917Z,24.45
2023-01-07T01:55:50.560Z,31.60
2023-01-07T01:56:28.441Z,36.45
2023-01-07T01:57:05.529Z,26.67
2023-01-07T01:57:40.272Z,29.90
2023-01-07T01:58:16.917Z,27.25
2023-01-07T01:58:56.037Z,30.83
2023-01-07T01:59:33.832Z,32.35
2023-01-07T02:00:11.570Z,30.38
2023-01-07T02:00:52.455Z,28.58
2023-01-07T02:01:26.747Z,29.30
2023-01-07T02:02:02.621Z,32.83
2023-01-07T02:02:41.921Z,31.98
2023-01-07T02:03:20.543Z,31.33
2023-01-07T02:03:58.267Z,31.42
2023-01-07T02:04:33.009Z,28.67
2023-01-07T02:05:09.810Z,31.77
2023-01-07T02:05:44.981Z,33.33
2023-01-07T02:06:25.281Z,29.55
2023-01-07T02:07:04.141Z,30.98
2023-01-07T02:07:39.349Z,32.13
2023-01-07T02:08:13.080Z,35.03
2023-01-07T02:08:47.200Z,31.42
2023-01-07T02:09:21.194Z,32.15
2023-01-07T02:10:01.351Z,31.20
2023-01-07T02:10:40.483Z,32.88
2023-01-07T02:11:27.745Z,39.10
2023-01-07T02:12:11.409Z,32.97
2023-01-07T02:12:58.681Z,32.28
2023-01-07T02:13:45.481Z,28.20
2023-01-07T02:14:55.282Z,32.35
2023-01-07T02:15:38.344Z,28.73
2023-01-07T02:16:20.763Z,34.38
2023-01-07T02:17:00.758Z,31.52
2023-01-07T02:18:01.476Z,33.88
2023-01-07T02:18:54.637Z,29.17
2023-01-07T02:19:59.345Z,26.77
2023-01-07T02:20:50.864Z,25.08
2023-01-07T02:21:35.216Z,31.60
2023-01-07T02:22:18.965Z,26.38
2023-01-07T02:23:37.509Z,30.52
2023-01-07T02:24:50.084Z,27.85
2023-01-07T02:25:57.331Z,25.65
2023-01-07T02:26:57.068Z,24.45
2023-01-07T02:27:58.661Z,29.45
2023-01-07T02:28:59.536Z,25.25
2023-01-07T02:30:03.920Z,30.30
2023-01-07T02:30:51.287Z,27.00
2023-01-07T02:31:50.797Z,30.45
2023-01-07T02:33:47.998Z,27.25
2023-01-07T02:34:31.459Z,28.00
2023-01-07T02:35:19.575Z,33.55
2023-01-07T02:36:28.287Z,33.38
2023-01-07T02:37:08.870Z,29.42
2023-01-07T02:37:53.472Z,31.95
2023-01-07T02:38:38.657Z,26.52
2023-01-07T02:39:34.668Z,25.90
2023-01-07T02:40:15.421Z,32.25
2023-01-07T02:40:58.279Z,24.08
2023-01-07T02:41:46.097Z,33.67
2023-01-07T02:42:27.790Z,23.60
2023-01-07T02:43:13.195Z,27.75
2023-01-07T02:43:55.603Z,31.55
2023-01-07T02:44:36.706Z,25.80
2023-01-07T02:45:16.467Z,26.90
2023-01-07T02:45:57.659Z,27.70
2023-01-07T02:46:36.131Z,29.70
2023-01-07T02:47:16.239Z,27.27
2023-01-07T02:47:55.777Z,28.10
2023-01-07T02:48:32.030Z,25.23
2023-01-07T02:49:09.540Z,27.45
2023-01-07T02:49:44.297Z,29.98
2023-01-07T02:50:18.044Z,31.67
2023-01-07T02:50:52.001Z,27.75
2023-01-07T02:51:34.763Z,28.40
2023-01-07T02:52:20.065Z,27.23
2023-01-07T02:52:54.661Z,31.30
2023-01-07T02:53:29.944Z,31.83
2023-01-07T02:54:04.728Z,30.10
2023-01-07T02:54:40.336Z,33.85
2023-01-07T02:55:17.615Z,27.85
2023-01-07T02:56:05.155Z,25.92
2023-01-07T02:57:45.703Z,28.05
2023-01-07T02:58:54.835Z,30.45
2023-01-07T03:00:01.944Z,26.35
2023-01-07T03:01:03.305Z,28.80
2023-01-07T03:01:54.553Z,33.47
2023-01-07T03:02:52.768Z,32.30
2023-01-07T03:03:42.948Z,30.52
2023-01-07T03:04:54.204Z,17.25
2023-01-07T03:05:41.795Z,27.63
2023-01-07T03:06:30.163Z,25.60
2023-01-07T03:07:21.937Z,26.33
2023-01-07T03:08:09.846Z,25.30
2023-01-07T03:08:59.673Z,29.30
2023-01-07T03:09:42.786Z,28.80
2023-01-07T03:10:26.846Z,31.55
2023-01-07T03:11:03.866Z,24.02
2023-01-07T03:11:45.119Z,27.50
2023-01-07T03:12:31.265Z,31.42
2023-01-07T03:13:08.127Z,25.55
2023-01-07T03:13:47.672Z,25.83
2023-01-07T03:14:32.154Z,31.50
2023-01-07T03:15:11.990Z,29.40
2023-01-07T03:15:49.679Z,29.77
2023-01-07T03:16:28.601Z,31.58
2023-01-07T03:17:06.931Z,24.65
2023-01-07T03:17:50.140Z,25.75
2023-01-07T03:18:27.738Z,27.65
2023-01-07T03:19:12.843Z,23.45
2023-01-07T03:19:51.629Z,21.45
2023-01-07T03:20:26.073Z,27.67
2023-01-07T03:21:03.308Z,25.95
2023-01-07T03:21:37.948Z,22.15
2023-01-07T03:22:13.937Z,26.52
2023-01-07T03:22:48.682Z,22.83
2023-01-07T03:23:26.319Z,23.70
2023-01-07T03:24:05.800Z,26.80
2023-01-07T03:24:40.706Z,23.92
2023-01-07T03:25:21.043Z,24.70
2023-01-07T03:26:00.397Z,26.15
2023-01-07T03:26:36.880Z,27.98
2023-01-07T03:27:11.196Z,25.30
2023-01-07T03:27:46.864Z,21.45
2023-01-07T03:28:28.110Z,30.77
2023-01-07T03:29:06.656Z,22.25
2023-01-07T03:29:42.250Z,24.70
2023-01-07T03:30:18.603Z,24.13
2023-01-07T03:30:57.029Z,25.38
2023-01-07T03:31:33.063Z,23.05
2023-01-07T03:32:15.216Z,22.02
2023-01-07T03:32:54.613Z,20.27
2023-01-07T03:33:35.653Z,28.05
2023-01-07T03:34:13.356Z,20.08
2023-01-07T03:34:48.793Z,21.30
2023-01-07T03:35:24.045Z,20.52
2023-01-07T03:35:59.994Z,20.30
2023-01-07T03:36:38.953Z,20.73
2023-01-07T03:37:16.656Z,20.27
2023-01-07T03:37:54.253Z,25.05
2023-01-07T03:38:28.492Z,22.10
2023-01-07T03:39:02.736Z,22.30
2023-01-07T03:39:39.665Z,23.08
2023-01-07T03:40:14.888Z,23.92
2023-01-07T03:40:49.122Z,20.58
2023-01-07T03:41:43.311Z,19.50
2023-01-07T03:42:39.605Z,22.90
2023-01-07T03:43:22.408Z,24.60
2023-01-07T03:43:56.997Z,22.05
2023-01-07T03:44:31.097Z,25.38
2023-01-07T03:45:06.410Z,28.58
2023-01-07T03:45:41.755Z,25.92
2023-01-07T03:46:14.496Z,23.85
2023-01-07T03:46:48.769Z,26.75
2023-01-07T03:47:24.356Z,27.95
2023-01-07T03:47:58.168Z,26.75
2023-01-07T03:48:39.659Z,27.42
2023-01-07T03:49:18.796Z,29.35
2023-01-07T03:49:52.300Z,30.45
2023-01-07T03:50:25.473Z,25.55
2023-01-07T03:51:01.655Z,27.70
2023-01-07T03:51:35.769Z,24.83
2023-01-07T03:52:08.687Z,28.80
2023-01-07T03:52:43.449Z,24.15
2023-01-07T03:53:17.547Z,31.08
2023-01-07T03:53:54.718Z,24.05
2023-01-07T03:54:30.606Z,27.80
2023-01-07T03:55:09.379Z,24.73
2023-01-07T03:55:43.872Z,25.67
2023-01-07T03:56:18.886Z,26.35
2023-01-07T03:56:52.417Z,29.67
2023-01-07T03:57:25.796Z,27.52
2023-01-07T03:58:00.644Z,28.20
2023-01-07T03:58:35.182Z,32.92
2023-01-07T03:59:09.131Z,32.28
2023-01-07T03:59:44.747Z,29.60
2023-01-07T04:00:19.771Z,33.15
2023-01-07T04:01:02.339Z,29.65
2023-01-07T04:01:36.147Z,28.10
2023-01-07T04:02:10.349Z,29.40
2023-01-07T04:02:45.387Z,29.75
2023-01-07T04:03:28.297Z,28.00
2023-01-07T04:04:03.211Z,26.33
2023-01-07T04:04:40.391Z,31.25
2023-01-07T04:05:14.103Z,29.13
2023-01-07T04:05:48.724Z,35.63
2023-01-07T04:06:23.846Z,36.70
2023-01-07T04:06:57.610Z,35.45
2023-01-07T04:07:32.664Z,32.33
2023-01-07T04:08:07.704Z,32.47
2023-01-07T04:08:44.200Z,28.92
2023-01-07T04:09:19.454Z,30.13
2023-01-07T04:09:57.281Z,30.52
2023-01-07T04:10:32.014Z,32.47
2023-01-07T04:11:05.343Z,23.45
2023-01-07T04:11:40.088Z,35.15
2023-01-07T04:12:14.636Z,27.35
2023-01-07T04:12:48.708Z,26.85
2023-01-07T04:13:22.815Z,27.98
2023-01-07T04:13:57.834Z,24.60
2023-01-07T04:14:31.329Z,25.02
2023-01-07T04:15:08.763Z,27.13
2023-01-07T04:15:45.597Z,18.58
2023-01-07T04:16:19.886Z,25.08
2023-01-07T04:16:54.652Z,26.00
2023-01-07T04:17:28.361Z,27.75
2023-01-07T04:18:02.261Z,27.33
2023-01-07T04:18:44.637Z,20.88
2023-01-07T04:19:19.284Z,23.17
2023-01-07T04:19:54.412Z,19.83
2023-01-07T04:20:29.342Z,24.92
2023-01-07T04:21:02.287Z,24.73
2023-01-07T04:21:37.775Z,23.08
2023-01-07T04:22:12.532Z,26.42
2023-01-07T04:22:47.303Z,19.20
2023-01-07T04:23:21.872Z,19.58
2023-01-07T04:23:57.355Z,18.15
2023-01-07T04:24:31.120Z,20.52
2023-01-07T04:25:07.407Z,20.27
2023-01-07T04:25:41.372Z,24.45
2023-01-07T04:26:16.521Z,25.75
2023-01-07T04:26:51.235Z,20.52
2023-01-07T04:27:26.089Z,22.55
2023-01-07T04:28:00.409Z,21.95
2023-01-07T04:28:34.619Z,23.58
2023-01-07T04:29:08.037Z,19.08
2023-01-07T04:29:41.895Z,17.15
2023-01-07T04:30:16.359Z,18.38
2023-01-07T04:30:49.903Z,17.58
2023-01-07T04:31:24.258Z,17.88
2023-01-07T04:31:58.807Z,16.02
2023-01-07T04:32:31.831Z,14.77
2023-01-07T04:33:06.337Z,17.55
2023-01-07T04:33:40.489Z,15.30
2023-01-07T04:34:15.359Z,17.98
2023-01-07T04:34:52.870Z,18.75
2023-01-07T04:35:28.659Z,18.10
2023-01-07T04:36:02.660Z,15.75
2023-01-07T04:36:37.632Z,13.43
2023-01-07T04:37:12.271Z,13.90
2023-01-07T04:37:45.126Z,11.50
2023-01-07T04:38:19.435Z,16.45
2023-01-07T04:38:53.422Z,13.55
2023-01-07T04:39:26.549Z,14.32
2023-01-07T04:40:01.209Z,13.38
2023-01-07T04:40:38.484Z,14.55
2023-01-07T04:41:11.630Z,14.13
2023-01-07T04:41:46.839Z,14.20
2023-01-07T04:42:21.090Z,16.33
2023-01-07T04:42:56.522Z,13.07
2023-01-07T04:43:30.625Z,15.35
2023-01-07T04:44:05.385Z,13.25
2023-01-07T04:44:41.830Z,11.90
2023-01-07T04:45:16.357Z,16.58
2023-01-07T04:45:49.818Z,20.67
2023-01-07T04:46:26.809Z,11.88
2023-01-07T04:47:01.503Z,13.35
2023-01-07T04:47:36.777Z,13.48
2023-01-07T04:48:12.965Z,16.67
2023-01-07T04:48:47.271Z,13.60
2023-01-07T04:49:22.030Z,13.13
2023-01-07T04:49:56.507Z,13.38
2023-01-07T04:50:33.131Z,12.60
2023-01-07T04:51:07.188Z,11.98
2023-01-07T04:51:41.076Z,18.33
2023-01-07T04:52:19.708Z,13.00
2023-01-07T04:52:52.651Z,12.65
2023-01-07T04:53:26.751Z,13.45
2023-01-07T04:54:02.904Z,9.82
2023-01-07T04:54:37.145Z,12.73
2023-01-07T04:55:12.487Z,11.63
2023-01-07T04:55:47.482Z,15.20
2023-01-07T04:56:23.481Z,12.00
2023-01-07T04:56:57.498Z,14.30
2023-01-07T04:57:31.877Z,14.18
2023-01-07T04:58:05.814Z,10.30
2023-01-07T04:58:39.819Z,14.63
2023-01-07T04:59:14.878Z,14.70
2023-01-07T04:59:49.503Z,9.50
2023-01-07T05:00:22.815Z,13.60
2023-01-07T05:01:01.731Z,11.90
2023-01-07T05:01:36.199Z,13.93
2023-01-07T05:02:10.977Z,10.90
2023-01-07T05:02:45.038Z,10.20
2023-01-07T05:03:20.076Z,9.23
2023-01-07T05:03:56.396Z,14.32
2023-01-07T05:04:31.490Z,11.43
2023-01-07T05:05:04.932Z,12.70
2023-01-07T05:05:42.533Z,11.52
2023-01-07T05:06:15.681Z,11.88
2023-01-07T05:06:50.907Z,12.52
2023-01-07T05:07:25.117Z,9.70
2023-01-07T05:07:59.785Z,13.75
2023-01-07T05:08:36.212Z,11.20
2023-01-07T05:09:12.471Z,11.70
2023-01-07T05:09:46.166Z,11.10
2023-01-07T05:10:20.792Z,11.65
2023-01-07T05:10:54.875Z,10.68
2023-01-07T05:11:28.777Z,12.07
2023-01-07T05:12:05.942Z,14.18
2023-01-07T05:12:40.113Z,11.73
2023-01-07T05:13:17.632Z,12.25
2023-01-07T05:13:54.434Z,13.13
2023-01-07T05:14:32.102Z,13.48
2023-01-07T05:15:09.664Z,14.93
2023-01-07T05:15:47.587Z,10.15
2023-01-07T05:16:22.084Z,12.48
2023-01-07T05:16:58.263Z,14.55
2023-01-07T05:17:36.844Z,15.57
2023-01-07T05:18:10.699Z,13.18
2023-01-07T05:18:44.655Z,14.27
2023-01-07T05:19:19.774Z,14.68
2023-01-07T05:19:54.538Z,16.90
2023-01-07T05:20:28.584Z,13.82
2023-01-07T05:21:05.462Z,15.40
2023-01-07T05:21:41.191Z,14.20
2023-01-07T05:22:15.916Z,13.43
2023-01-07T05:22:50.333Z,15.27
2023-01-07T05:23:24.543Z,12.10
2023-01-07T05:24:02.774Z,18.75
2023-01-07T05:24:37.805Z,13.73
2023-01-07T05:25:14.325Z,14.43
2023-01-07T05:25:51.863Z,16.63
2023-01-07T05:26:27.792Z,11.75
2023-01-07T05:27:02.754Z,14.95
2023-01-07T05:27:37.865Z,14.75
2023-01-07T05:28:12.358Z,17.73
2023-01-07T05:28:47.847Z,11.40
2023-01-07T05:29:22.389Z,16.63
2023-01-07T05:29:55.941Z,14.95
2023-01-07T05:30:30.128Z,12.27
2023-01-07T05:31:04.976Z,13.68
2023-01-07T05:31:40.177Z,14.23
2023-01-07T05:32:14.017Z,15.30
2023-01-07T05:32:49.059Z,14.25
2023-01-07T05:33:22.813Z,14.65
2023-01-07T05:33:56.591Z,14.40
2023-01-07T05:34:32.201Z,16.88
2023-01-07T05:35:08.004Z,15.80
2023-01-07T05:35:41.759Z,13.20
2023-01-07T05:36:18.718Z,21.48
2023-01-07T05:36:52.766Z,13.38
2023-01-07T05:37:26.554Z,12.30
2023-01-07T05:38:01.019Z,14.60
2023-01-07T05:38:37.603Z,13.38
2023-01-07T05:39:12.300Z,14.55
2023-01-07T05:39:47.423Z,16.58
2023-01-07T05:40:25.827Z,17.02
2023-01-07T05:41:01.485Z,17.05
2023-01-07T05:41:35.906Z,14.05
2023-01-07T05:42:11.131Z,13.13
2023-01-07T05:42:46.619Z,15.80
2023-01-07T05:43:21.569Z,18.35
2023-01-07T05:43:57.715Z,18.90
2023-01-07T05:44:31.065Z,14.02
2023-01-07T05:45:05.834Z,14.57
2023-01-07T05:45:41.668Z,14.50
2023-01-07T05:46:15.710Z,14.90
2023-01-07T05:46:50.896Z,14.02
2023-01-07T05:47:25.818Z,19.85
2023-01-07T05:48:00.420Z,21.30
2023-01-07T05:48:33.947Z,15.02
2023-01-07T05:49:09.485Z,14.18
2023-01-07T05:49:42.570Z,20.75
2023-01-07T05:50:16.138Z,17.08
2023-01-07T05:50:51.666Z,16.52
2023-01-07T05:51:27.398Z,17.42
2023-01-07T05:52:01.242Z,15.50
2023-01-07T05:52:36.360Z,29.67
2023-01-07T05:53:10.625Z,17.67
2023-01-07T05:53:43.763Z,23.08
2023-01-07T05:54:19.343Z,17.05
2023-01-07T05:54:53.381Z,15.88
2023-01-07T05:55:28.173Z,17.52
2023-01-07T05:56:03.658Z,19.08
2023-01-07T05:56:37.995Z,15.32
2023-01-07T05:57:13.081Z,21.27
2023-01-07T05:57:48.790Z,18.58
2023-01-07T05:58:22.041Z,18.35
2023-01-07T05:58:56.873Z,20.83
2023-01-07T05:59:34.858Z,21.55
2023-01-07T06:00:10.429Z,20.92
2023-01-07T06:00:48.519Z,21.98
2023-01-07T06:01:22.724Z,18.77
2023-01-07T06:01:58.849Z,20.88
2023-01-07T06:02:32.656Z,16.88
2023-01-07T06:03:10.328Z,21.35
2023-01-07T06:03:44.385Z,22.25
2023-01-07T06:04:17.475Z,25.17
2023-01-07T06:04:53.063Z,18.23
2023-01-07T06:05:26.682Z,22.70
2023-01-07T06:06:07.325Z,17.23
2023-01-07T06:06:43.533Z,18.25
2023-01-07T06:07:16.400Z,24.75
2023-01-07T06:07:51.749Z,21.00
2023-01-07T06:08:24.537Z,21.08
2023-01-07T06:08:59.899Z,26.40
2023-01-07T06:09:33.602Z,21.48
2023-01-07T06:10:14.910Z,18.80
2023-01-07T06:10:49.122Z,20.80
2023-01-07T06:11:23.678Z,24.23
2023-01-07T06:11:58.491Z,22.35
2023-01-07T06:12:32.077Z,23.27
2023-01-07T06:13:06.908Z,19.73
2023-01-07T06:13:43.288Z,18.17
2023-01-07T06:14:17.813Z,24.25
2023-01-07T06:14:52.652Z,22.25
2023-01-07T06:15:27.315Z,19.45
2023-01-07T06:16:01.084Z,20.05
2023-01-07T06:16:36.131Z,22.40
2023-01-07T06:17:09.528Z,21.08
2023-01-07T06:17:43.845Z,23.25
2023-01-07T06:18:17.842Z,23.02
2023-01-07T06:18:52.087Z,20.83
2023-01-07T06:19:27.128Z,20.60
2023-01-07T06:20:01.677Z,23.85
2023-01-07T06:20:37.064Z,22.63
2023-01-07T06:21:11.532Z,19.13
2023-01-07T06:21:46.728Z,24.23
2023-01-07T06:22:20.060Z,23.42
2023-01-07T06:22:56.558Z,17.75
2023-01-07T06:23:31.994Z,20.77
2023-01-07T06:24:08.230Z,20.13
2023-01-07T06:24:43.123Z,23.30
2023-01-07T06:25:17.706Z,18.58
2023-01-07T06:25:51.223Z,19.33
2023-01-07T06:26:26.855Z,16.33
2023-01-07T06:27:00.724Z,18.88
2023-01-07T06:27:35.372Z,19.00
2023-01-07T06:28:10.836Z,19.58
2023-01-07T06:28:44.899Z,21.98
2023-01-07T06:29:18.894Z,24.27
2023-01-07T06:29:53.139Z,19.73
2023-01-07T06:30:26.535Z,16.40
2023-01-07T06:31:00.159Z,27.85
2023-01-07T06:31:36.151Z,20.90
2023-01-07T06:32:09.763Z,18.00
2023-01-07T06:32:44.027Z,20.50
2023-01-07T06:33:19.472Z,27.02
2023-01-07T06:33:54.826Z,22.02
2023-01-07T06:34:29.521Z,23.50
2023-01-07T06:35:03.385Z,20.77
2023-01-07T06:35:38.365Z,23.58
2023-01-07T06:36:13.081Z,25.48
2023-01-07T06:36:48.540Z,22.08
2023-01-07T06:37:21.905Z,23.30
2023-01-07T06:37:56.350Z,23.27
2023-01-07T06:38:31.866Z,21.92
2023-01-07T06:39:05.852Z,24.25
2023-01-07T06:39:39.498Z,24.23
2023-01-07T06:40:14.323Z,26.25
2023-01-07T06:40:48.718Z,20.92
2023-01-07T06:41:23.005Z,24.98
2023-01-07T06:41:58.048Z,24.98
2023-01-07T06:42:32.118Z,25.13
2023-01-07T06:43:07.186Z,24.80
2023-01-07T06:43:41.755Z,21.20
2023-01-07T06:44:15.328Z,21.55
2023-01-07T06:45:03.141Z,20.70
2023-01-07T06:45:37.018Z,19.48
2023-01-07T06:46:15.933Z,27.13
2023-01-07T06:47:10.447Z,27.77
2023-01-07T06:48:16.619Z,20.13
2023-01-07T06:49:04.875Z,27.80
2023-01-07T06:49:37.999Z,19.95
2023-01-07T06:50:12.831Z,26.38
2023-01-07T06:50:45.744Z,25.33
2023-01-07T06:51:19.375Z,19.15
2023-01-07T06:51:54.710Z,21.63
2023-01-07T06:52:28.143Z,19.80
2023-01-07T06:53:03.218Z,20.77
2023-01-07T06:53:37.009Z,19.00
2023-01-07T06:54:12.761Z,17.08
2023-01-07T06:54:48.484Z,18.60
2023-01-07T06:55:22.926Z,18.70
2023-01-07T06:55:58.003Z,13.80
2023-01-07T06:56:34.511Z,14.70
2023-01-07T06:57:10.249Z,14.48
2023-01-07T06:57:43.083Z,18.05
2023-01-07T06:58:16.621Z,17.10
2023-01-07T06:58:51.988Z,14.07
2023-01-07T06:59:26.194Z,15.98
2023-01-07T07:00:01.179Z,16.60
2023-01-07T07:00:38.249Z,12.65
2023-01-07T07:01:14.839Z,14.55
2023-01-07T07:01:49.003Z,15.05
2023-01-07T07:02:24.379Z,14.73
2023-01-07T07:02:58.993Z,11.27
2023-01-07T07:03:33.727Z,12.98
2023-01-07T07:04:17.182Z,14.73
2023-01-07T07:04:52.622Z,10.90
2023-01-07T07:05:28.174Z,13.68
2023-01-07T07:06:03.252Z,15.27
2023-01-07T07:06:38.128Z,14.48
2023-01-07T07:07:13.154Z,13.57
2023-01-07T07:07:48.796Z,13.13
2023-01-07T07:08:22.664Z,18.15
2023-01-07T07:08:56.398Z,14.07
2023-01-07T07:09:32.552Z,11.82
2023-01-07T07:10:09.128Z,17.08
2023-01-07T07:10:42.884Z,14.15
2023-01-07T07:11:18.574Z,11.38
2023-01-07T07:11:53.098Z,12.60
2023-01-07T07:12:26.066Z,13.90
2023-01-07T07:13:01.568Z,11.18
2023-01-07T07:13:36.161Z,14.30
2023-01-07T07:14:10.104Z,15.82
2023-01-07T07:14:44.273Z,12.90
2023-01-07T07:15:19.479Z,15.48
2023-01-07T07:15:53.938Z,15.18
2023-01-07T07:16:31.834Z,12.88
2023-01-07T07:17:07.127Z,16.88
2023-01-07T07:17:42.205Z,13.95
2023-01-07T07:18:16.108Z,18.67
2023-01-07T07:18:50.841Z,12.32
2023-01-07T07:19:28.141Z,17.38
2023-01-07T07:20:01.583Z,17.15
2023-01-07T07:20:36.682Z,13.60
2023-01-07T07:21:10.798Z,12.05
2023-01-07T07:21:49.731Z,16.10
2023-01-07T07:22:25.427Z,98.60
2023-01-07T07:23:00.157Z,28.20
2023-01-07T07:23:34.719Z,17.10
2023-01-07T07:24:09.727Z,16.23
2023-01-07T07:24:44.443Z,17.40
2023-01-07T07:25:18.927Z,13.48
2023-01-07T07:25:52.982Z,12.57
2023-01-07T07:26:27.922Z,20.48
2023-01-07T07:27:04.031Z,11.35
2023-01-07T07:27:38.973Z,13.80
2023-01-07T07:28:15.198Z,16.95
2023-01-07T07:28:52.892Z,14.20
2023-01-07T07:29:29.711Z,14.77
2023-01-07T07:30:03.934Z,14.88
2023-01-07T07:31:00.246Z,17.15
2023-01-07T07:31:35.643Z,15.40
2023-01-07T07:32:10.426Z,18.60
2023-01-07T07:32:44.906Z,15.23
2023-01-07T07:33:20.041Z,13.43
2023-01-07T07:34:17.457Z,12.48
2023-01-07T07:34:51.466Z,24.42
2023-01-07T07:35:27.280Z,15.32
2023-01-07T07:36:01.286Z,14.05
2023-01-07T07:36:35.215Z,15.50
2023-01-07T07:37:13.121Z,16.77
2023-01-07T07:37:51.017Z,15.43
2023-01-07T07:38:24.535Z,16.20
2023-01-07T07:39:00.329Z,12.15
2023-01-07T07:39:35.556Z,13.70
2023-01-07T07:40:12.672Z,13.93
2023-01-07T07:40:46.786Z,16.77
2023-01-07T07:41:21.414Z,16.30
2023-01-07T07:41:58.876Z,16.27
2023-01-07T07:43:11.270Z,16.40
2023-01-07T07:43:29.103Z,19.73
2023-01-07T07:44:03.426Z,15.48
2023-01-07T07:44:37.377Z,12.52
2023-01-07T07:45:11.940Z,17.05
2023-01-07T07:45:46.400Z,12.85
2023-01-07T07:46:20.995Z,12.43
2023-01-07T07:46:56.148Z,13.80
2023-01-07T07:47:30.849Z,21.13
2023-01-07T07:48:06.593Z,14.27
2023-01-07T07:48:41.204Z,16.10
2023-01-07T07:49:15.437Z,14.85
2023-01-07T07:49:49.227Z,16.38
2023-01-07T07:50:24.332Z,17.73
2023-01-07T07:50:58.203Z,14.80
2023-01-07T07:51:31.596Z,14.98
2023-01-07T07:52:06.749Z,15.82
2023-01-07T07:52:41.481Z,22.02
2023-01-07T07:53:16.839Z,17.92
2023-01-07T07:53:52.158Z,16.65
2023-01-07T07:54:28.826Z,17.92
2023-01-07T07:55:19.557Z,18.23
2023-01-07T07:55:55.104Z,15.63
2023-01-07T07:56:30.284Z,20.13
2023-01-07T07:57:05.018Z,23.67
2023-01-07T07:57:40.073Z,15.90
2023-01-07T07:58:13.843Z,16.48
2023-01-07T07:58:47.625Z,18.02
2023-01-07T07:59:22.891Z,17.30